createdAt,value
2022-12-16T00:03:46.935Z,14.07
2022-12-16T00:08:44.940Z,16.00
2022-12-16T00:13:42.715Z,14.35
2022-12-16T00:18:40.593Z,14.30
2022-12-16T00:23:39.553Z,14.55
2022-12-16T00:28:38.435Z,14.32
2022-12-16T00:33:36.621Z,14.48
2022-12-16T00:38:35.139Z,13.98
2022-12-16T00:43:32.901Z,13.57
2022-12-16T00:48:30.582Z,13.77
2022-12-16T00:53:28.362Z,13.90
2022-12-16T00:58:26.340Z,14.02
2022-12-16T01:03:23.899Z,14.05
2022-12-16T01:08:21.444Z,15.82
2022-12-16T01:13:20.182Z,12.23
2022-12-16T01:18:18.434Z,13.32
2022-12-16T01:23:19.322Z,12.55
2022-12-16T01:28:16.503Z,12.82
2022-12-16T01:33:14.850Z,14.68
2022-12-16T01:38:13.314Z,13.05
2022-12-16T01:43:14.329Z,12.52
2022-12-16T01:48:30.769Z,13.27
2022-12-16T01:53:28.454Z,13.18
2022-12-16T01:58:30.871Z,12.10
2022-12-16T02:03:32.301Z,12.63
2022-12-16T02:08:30.190Z,11.75
2022-12-16T02:13:42.397Z,13.60
2022-12-16T02:18:40.665Z,13.98
2022-12-16T02:23:56.377Z,13.70
2022-12-16T02:29:25.243Z,12.50
2022-12-16T02:34:52.939Z,14.75
2022-12-16T02:40:06.935Z,13.40
2022-12-16T02:45:27.770Z,13.52
2022-12-16T02:55:40.791Z,12.18
2022-12-16T03:01:06.312Z,12.25
2022-12-16T03:06:06.131Z,13.73
2022-12-16T03:11:07.071Z,12.95
2022-12-16T03:16:06.980Z,12.60
2022-12-16T03:21:07.325Z,13.98
2022-12-16T03:26:19.171Z,13.93
2022-12-16T03:31:43.000Z,12.30
2022-12-16T03:36:45.465Z,13.85
2022-12-16T03:41:44.716Z,14.43
2022-12-16T03:46:41.944Z,13.65
2022-12-16T03:51:39.305Z,14.02
2022-12-16T03:56:36.664Z,12.70
2022-12-16T04:01:34.170Z,13.07
2022-12-16T04:06:31.833Z,13.70
2022-12-16T04:11:47.609Z,14.38
2022-12-16T04:17:04.322Z,13.65
2022-12-16T04:22:21.069Z,13.45
2022-12-16T04:27:27.972Z,13.85
2022-12-16T04:32:27.127Z,12.95
2022-12-16T04:37:52.291Z,14.65
2022-12-16T04:43:27.867Z,13.68
2022-12-16T04:48:44.098Z,12.20
2022-12-16T04:54:00.100Z,13.30
2022-12-16T04:59:17.472Z,13.38
2022-12-16T05:04:33.434Z,13.77
2022-12-16T05:09:49.661Z,13.68
2022-12-16T05:15:06.500Z,14.88
2022-12-16T05:20:28.045Z,13.25
2022-12-16T05:25:45.791Z,14.88
2022-12-16T05:31:11.217Z,13.65
2022-12-16T05:36:29.353Z,15.07
2022-12-16T05:41:45.764Z,12.07
2022-12-16T05:47:03.292Z,13.05
2022-12-16T05:52:19.268Z,12.95
2022-12-16T05:57:35.058Z,15.68
2022-12-16T06:03:01.755Z,14.52
2022-12-16T06:08:19.213Z,15.35
2022-12-16T06:13:36.088Z,15.82
2022-12-16T06:18:51.992Z,15.45
2022-12-16T06:24:07.855Z,16.73
2022-12-16T06:29:23.817Z,15.10
2022-12-16T06:34:41.254Z,18.13
2022-12-16T06:39:57.303Z,17.95
2022-12-16T06:45:13.173Z,15.75
2022-12-16T06:50:29.074Z,18.40
2022-12-16T06:55:44.898Z,17.45
2022-12-16T07:01:00.984Z,16.98
2022-12-16T07:06:16.567Z,19.77
2022-12-16T07:11:32.169Z,18.70
2022-12-16T07:16:48.174Z,18.00
2022-12-16T07:22:04.031Z,16.25
2022-12-16T07:27:19.626Z,16.40
2022-12-16T07:32:35.543Z,16.88
2022-12-16T07:37:51.530Z,16.60
2022-12-16T07:43:07.491Z,15.50
2022-12-16T07:48:25.092Z,19.08
2022-12-16T07:53:42.202Z,17.80
2022-12-16T07:58:58.073Z,18.42
2022-12-16T08:04:13.836Z,18.48
2022-12-16T08:09:29.606Z,20.15
2022-12-16T08:14:45.233Z,18.48
2022-12-16T08:20:01.403Z,18.67
2022-12-16T08:25:17.359Z,16.98
2022-12-16T08:30:33.565Z,16.33
2022-12-16T08:35:49.338Z,15.68
2022-12-16T08:41:05.078Z,14.38
2022-12-16T08:46:20.953Z,14.70
2022-12-16T08:51:36.777Z,12.95
2022-12-16T08:56:52.358Z,14.15
2022-12-16T09:02:08.353Z,12.45
2022-12-16T09:07:24.557Z,11.55
2022-12-16T09:12:40.599Z,10.65
2022-12-16T09:17:56.499Z,11.27
2022-12-16T09:23:20.004Z,10.30
2022-12-16T09:28:35.712Z,12.60
2022-12-16T09:33:51.601Z,11.23
2022-12-16T09:39:07.377Z,11.73
2022-12-16T09:44:49.579Z,11.80
2022-12-16T09:50:08.937Z,13.65
2022-12-16T09:56:09.801Z,11.20
2022-12-16T10:01:28.068Z,10.75
2022-12-16T10:06:57.376Z,10.38
2022-12-16T10:12:37.652Z,10.85
2022-12-16T10:18:00.794Z,9.75
2022-12-16T10:24:01.593Z,11.93
2022-12-16T10:29:51.613Z,10.02
2022-12-16T10:35:07.407Z,8.75
2022-12-16T10:40:26.557Z,10.55
2022-12-16T10:46:03.970Z,9.13
2022-12-16T10:51:20.112Z,9.23
2022-12-16T10:56:54.457Z,8.80
2022-12-16T11:02:17.548Z,8.57
2022-12-16T11:07:57.646Z,9.02
2022-12-16T11:13:27.264Z,9.23
2022-12-16T11:18:43.167Z,11.40
2022-12-16T11:23:59.076Z,10.60
2022-12-16T11:29:43.924Z,10.02
2022-12-16T11:35:01.580Z,9.77
2022-12-16T11:40:17.264Z,9.48
2022-12-16T11:45:39.051Z,9.77
2022-12-16T11:51:10.630Z,10.15
2022-12-16T11:56:33.668Z,10.25
2022-12-16T12:01:52.343Z,11.88
2022-12-16T12:07:18.454Z,10.63
2022-12-16T12:12:47.821Z,11.02
2022-12-16T12:18:16.857Z,12.95
2022-12-16T12:23:51.309Z,12.10
2022-12-16T12:29:37.889Z,13.25
2022-12-16T12:35:26.390Z,11.57
2022-12-16T12:41:10.635Z,12.20
2022-12-16T12:47:12.576Z,13.60
2022-12-16T12:53:06.320Z,13.95
2022-12-16T12:58:23.543Z,14.02
2022-12-16T13:03:58.559Z,12.77
2022-12-16T13:09:16.905Z,13.15
2022-12-16T13:14:53.868Z,13.70
2022-12-16T13:20:15.765Z,15.65
2022-12-16T13:26:08.734Z,16.63
2022-12-16T13:31:27.296Z,14.93
2022-12-16T13:36:53.259Z,17.50
2022-12-16T13:42:18.736Z,19.83
2022-12-16T13:47:52.454Z,19.98
2022-12-16T13:53:21.934Z,14.82
2022-12-16T13:58:58.734Z,15.30
2022-12-16T14:04:15.672Z,15.02
2022-12-16T14:09:54.779Z,13.85
2022-12-16T14:15:28.660Z,13.95
2022-12-16T14:20:54.728Z,22.25
2022-12-16T14:26:16.756Z,20.27
2022-12-16T14:31:57.858Z,16.55
2022-12-16T14:37:15.529Z,15.68
2022-12-16T14:42:46.618Z,16.02
2022-12-16T14:48:02.631Z,15.45
2022-12-16T14:53:39.665Z,17.17
2022-12-16T14:58:55.660Z,15.77
2022-12-16T15:04:12.196Z,17.52
2022-12-16T15:09:43.328Z,18.90
2022-12-16T15:15:00.314Z,27.67
2022-12-16T15:20:16.526Z,44.80
2022-12-16T15:25:51.790Z,29.58
2022-12-16T15:31:08.006Z,26.77
2022-12-16T15:36:52.101Z,24.50
2022-12-16T15:42:07.967Z,24.63
2022-12-16T15:47:25.684Z,25.23
2022-12-16T15:53:03.319Z,25.55
2022-12-16T15:58:19.787Z,27.73
2022-12-16T16:03:49.629Z,24.45
2022-12-16T16:09:10.278Z,26.35
2022-12-16T16:14:26.455Z,29.80
2022-12-16T16:19:46.096Z,22.17
2022-12-16T16:25:01.819Z,24.00
2022-12-16T16:30:18.429Z,25.33
2022-12-16T16:35:34.581Z,26.88
2022-12-16T16:40:54.923Z,28.55
2022-12-16T16:46:14.309Z,25.70
2022-12-16T16:51:30.317Z,28.02
2022-12-16T16:56:48.818Z,25.40
2022-12-16T17:02:05.183Z,27.48
2022-12-16T17:07:21.388Z,26.65
2022-12-16T17:12:42.330Z,26.77
2022-12-16T17:17:57.848Z,33.95
2022-12-16T17:23:13.555Z,30.90
2022-12-16T17:28:30.657Z,28.02
2022-12-16T17:33:47.321Z,25.25
2022-12-16T17:39:04.149Z,24.33
2022-12-16T17:44:20.043Z,20.98
2022-12-16T17:49:36.291Z,23.83
2022-12-16T17:54:52.076Z,22.40
2022-12-16T18:00:07.836Z,23.05
2022-12-16T18:05:24.117Z,22.05
2022-12-16T18:10:40.179Z,22.45
2022-12-16T18:15:56.130Z,22.85
2022-12-16T18:21:13.400Z,22.63
2022-12-16T18:26:29.489Z,22.83
2022-12-16T18:31:45.404Z,24.73
2022-12-16T18:37:01.130Z,25.20
2022-12-16T18:42:18.378Z,25.20
2022-12-16T18:47:35.301Z,28.98
2022-12-16T18:52:51.501Z,25.10
2022-12-16T18:58:20.987Z,24.27
2022-12-16T19:03:44.705Z,25.08
2022-12-16T19:09:17.277Z,29.95
2022-12-16T19:14:33.130Z,30.73
2022-12-16T19:19:49.631Z,25.27
2022-12-16T19:25:19.524Z,23.70
2022-12-16T19:30:35.806Z,24.65
2022-12-16T19:35:53.687Z,27.67
2022-12-16T19:41:13.235Z,20.77
2022-12-16T19:46:29.286Z,21.88
2022-12-16T19:51:46.258Z,24.33
2022-12-16T19:57:02.512Z,22.42
2022-12-16T20:02:29.220Z,22.67
2022-12-16T20:07:45.302Z,23.23
2022-12-16T20:13:01.880Z,23.27
2022-12-16T20:18:18.331Z,21.25
2022-12-16T20:23:35.213Z,22.08
2022-12-16T20:28:54.691Z,22.08
2022-12-16T20:34:15.258Z,21.95
2022-12-16T20:44:48.540Z,20.92
2022-12-16T20:50:04.929Z,21.92
2022-12-16T20:55:23.625Z,22.35
2022-12-16T21:00:40.339Z,22.23
2022-12-16T21:05:56.793Z,23.23
2022-12-16T21:11:16.028Z,22.67
2022-12-16T21:16:32.234Z,21.65
2022-12-16T21:21:47.709Z,22.25
2022-12-16T21:27:03.234Z,21.17
2022-12-16T21:32:19.005Z,22.55
2022-12-16T21:37:35.689Z,21.30
2022-12-16T21:42:51.485Z,20.35
2022-12-16T21:48:12.324Z,22.15
2022-12-16T21:53:28.686Z,23.00
2022-12-16T21:58:45.461Z,20.65
2022-12-16T22:04:02.829Z,20.88
2022-12-16T22:09:19.504Z,20.83
2022-12-16T22:14:35.319Z,21.52
2022-12-16T22:19:51.012Z,19.90
2022-12-16T22:25:14.259Z,20.73
2022-12-16T22:30:31.070Z,18.90
2022-12-16T22:35:47.346Z,21.23
2022-12-16T22:41:13.909Z,21.17
2022-12-16T22:46:29.665Z,21.25
2022-12-16T22:51:46.263Z,19.98
2022-12-16T22:57:03.525Z,19.70
2022-12-16T23:02:19.392Z,21.92
2022-12-16T23:07:35.334Z,21.73
2022-12-16T23:12:51.752Z,21.45
2022-12-16T23:18:08.054Z,21.27
2022-12-16T23:23:23.987Z,20.13
2022-12-16T23:28:40.027Z,20.77
2022-12-16T23:33:58.851Z,18.98
2022-12-16T23:39:15.101Z,21.02
2022-12-16T23:44:31.119Z,19.77
2022-12-16T23:49:46.812Z,19.38
2022-12-16T23:55:03.116Z,19.35
